Time;durP1;ratioP1;P1;durP2;ratioP2;P2;SDS_P1;SDS_P2;PMS_P1;PMS_P2;Temp;Humidity;BMP_temperature;BMP_pressure;BME280_temperature;BME280_humidity;BME280_pressure;Samples;Min_cycle;Max_cycle;Signal;HPM_P1;HPM_P2
2022/07/30 00:01:57;;;;;;;7.30;3.30;;;;;;;18.63;79.51;100875.75;107300;1281;75413;-83
2022/07/30 00:04:24;;;;;;;7.00;3.10;;;;;;;18.59;80.01;100872.87;107415;1279;63463;-84
2022/07/30 00:06:51;;;;;;;6.50;3.30;;;;;;;18.55;80.41;100860.62;107402;1281;61830;-81
2022/07/30 00:09:17;;;;;;;6.30;3.10;;;;;;;18.52;80.58;100858.72;107524;1280;75949;-83
2022/07/30 00:11:44;;;;;;;7.50;3.40;;;;;;;18.51;80.55;100862.66;107397;1281;72365;-84
2022/07/30 00:14:11;;;;;;;6.30;3.00;;;;;;;18.50;80.69;100863.41;107106;1281;72787;-83
2022/07/30 00:16:38;;;;;;;6.50;3.10;;;;;;;18.48;80.84;100858.16;107486;1279;63977;-84
2022/07/30 00:19:05;;;;;;;8.10;3.60;;;;;;;18.46;80.91;100857.63;107336;1279;61646;-84
2022/07/30 00:21:34;;;;;;;6.60;3.20;;;;;;;18.44;80.92;100851.59;107349;1279;75861;-84
2022/07/30 00:24:07;;;;;;;5.90;3.00;;;;;;;18.43;80.76;100848.66;107322;1280;72964;-84
2022/07/30 00:26:34;;;;;;;7.00;3.10;;;;;;;18.44;80.46;100852.98;107337;1280;72710;-84
2022/07/30 00:29:01;;;;;;;6.40;2.80;;;;;;;18.45;80.19;100851.15;107496;1279;62203;-84
2022/07/30 00:31:28;;;;;;;9.70;2.80;;;;;;;18.46;80.11;100852.09;107550;1281;61654;-84
2022/07/30 00:33:55;;;;;;;7.30;2.90;;;;;;;18.48;79.94;100851.13;107141;1279;73862;-83
2022/07/30 00:36:22;;;;;;;4.40;2.70;;;;;;;18.49;79.87;100849.55;107121;1281;71691;-83
2022/07/30 00:38:49;;;;;;;6.60;3.00;;;;;;;18.50;79.86;100842.55;107320;1279;74421;-83
2022/07/30 00:41:16;;;;;;;6.90;3.20;;;;;;;18.50;79.57;100844.86;107421;1281;63352;-83
2022/07/30 00:43:43;;;;;;;5.30;3.20;;;;;;;18.52;79.46;100844.73;107240;1281;60722;-83
2022/07/30 00:46:10;;;;;;;6.00;2.80;;;;;;;18.52;79.53;100837.63;106986;1282;74494;-83
2022/07/30 00:48:36;;;;;;;6.20;2.90;;;;;;;18.51;79.41;100838.11;107314;1281;71206;-84
2022/07/30 00:51:07;;;;;;;7.00;3.00;;;;;;;18.52;79.27;100841.77;107431;1281;74016;-83
2022/07/30 00:53:34;;;;;;;5.20;2.90;;;;;;;18.51;79.17;100838.27;107320;1281;61533;-83
2022/07/30 00:56:01;;;;;;;7.60;3.00;;;;;;;18.51;79.08;100840.89;107070;1283;59812;-82
2022/07/30 00:58:31;;;;;;;7.40;3.40;;;;;;;18.49;78.84;100844.22;107258;1282;76602;-83
2022/07/30 01:01:00;;;;;;;5.00;2.90;;;;;;;18.47;78.82;100839.45;107348;1281;73121;-83
2022/07/30 01:03:27;;;;;;;6.30;3.10;;;;;;;18.45;78.80;100836.95;107397;1281;73102;-82
2022/07/30 01:05:54;;;;;;;4.80;3.10;;;;;;;18.44;78.83;100832.69;107250;1281;60957;-83
2022/07/30 01:08:21;;;;;;;5.20;2.90;;;;;;;18.44;78.58;100834.77;107149;1281;60433;-83
2022/07/30 01:10:48;;;;;;;4.40;3.00;;;;;;;18.43;78.96;100836.25;107466;1279;76500;-82
2022/07/30 01:13:15;;;;;;;6.50;3.10;;;;;;;18.43;78.79;100835.23;107062;1282;71143;-84
2022/07/30 01:15:42;;;;;;;6.00;3.00;;;;;;;18.43;78.87;100834.90;107221;1282;71943;-82
2022/07/30 01:18:11;;;;;;;7.70;3.00;;;;;;;18.43;78.90;100836.79;107149;1282;62342;-84
2022/07/30 01:20:55;;;;;;;4.90;3.00;;;;;;;18.42;78.94;100834.73;107298;1282;60905;-84
2022/07/30 01:23:29;;;;;;;7.00;3.50;;;;;;;18.42;78.82;100826.21;107421;1280;76023;-82
2022/07/30 01:25:59;;;;;;;6.10;3.00;;;;;;;18.42;78.88;100823.58;107475;1281;71852;-84
2022/07/30 01:28:30;;;;;;;6.40;3.10;;;;;;;18.42;78.89;100826.39;107391;1281;74215;-82
2022/07/30 01:30:57;;;;;;;7.60;3.40;;;;;;;18.42;78.93;100833.25;107209;1281;63627;-83
2022/07/30 01:33:26;;;;;;;5.90;3.20;;;;;;;18.42;78.86;100835.69;107263;1282;61609;-84
2022/07/30 01:35:54;;;;;;;8.30;3.50;;;;;;;18.43;78.93;100838.13;107880;1280;76566;-84
2022/07/30 01:38:23;;;;;;;6.80;3.50;;;;;;;18.43;78.84;100836.52;108050;1280;71608;-83
2022/07/30 01:40:52;;;;;;;5.60;3.00;;;;;;;18.43;78.86;100829.70;107890;1279;72671;-84
2022/07/30 01:43:21;;;;;;;6.30;3.50;;;;;;;18.44;78.90;100830.42;107830;1281;62440;-83
2022/07/30 01:45:50;;;;;;;6.30;3.10;;;;;;;18.44;78.57;100828.77;108003;1281;60488;-83
2022/07/30 01:48:21;;;;;;;7.70;3.30;;;;;;;18.45;78.68;100829.92;108045;1281;74996;-83
2022/07/30 01:50:51;;;;;;;5.30;3.30;;;;;;;18.46;78.67;100830.98;108036;1281;71378;-83
2022/07/30 01:53:23;;;;;;;7.30;3.00;;;;;;;18.47;78.47;100831.05;107692;1281;72742;-83
2022/07/30 01:55:53;;;;;;;6.80;3.50;;;;;;;18.47;78.57;100830.14;107996;1279;62238;-83
2022/07/30 01:58:22;;;;;;;5.70;2.80;;;;;;;18.47;78.39;100827.09;107721;1282;60658;-83
2022/07/30 02:00:49;;;;;;;6.20;2.90;;;;;;;18.47;78.36;100824.02;107946;1281;74906;-83
2022/07/30 02:03:16;;;;;;;5.40;3.20;;;;;;;18.48;78.33;100824.46;108059;1280;71965;-84
2022/07/30 02:05:53;;;;;;;5.10;3.10;;;;;;;18.48;78.14;100827.69;107900;1281;73551;-82
2022/07/30 02:08:44;;;;;;;7.50;3.30;;;;;;;18.47;78.24;100831.80;108028;1280;62109;-83
2022/07/30 02:14:07;;;;;;;5.90;3.10;;;;;;;18.46;78.04;100839.02;107914;1281;74957;-82
2022/07/30 02:16:37;;;;;;;5.70;3.20;;;;;;;18.46;77.90;100838.86;107798;1282;71550;-83
2022/07/30 02:19:12;;;;;;;6.10;3.00;;;;;;;18.46;78.06;100848.59;107296;1282;72963;-82
2022/07/30 02:22:01;;;;;;;6.70;3.20;;;;;;;18.46;77.94;100853.75;107657;1281;62148;-83
2022/07/30 02:24:31;;;;;;;6.40;3.00;;;;;;;18.47;77.94;100860.33;107526;1279;61286;-83
2022/07/30 02:27:07;;;;;;;5.50;3.20;;;;;;;18.48;77.88;100868.10;107223;1281;74967;-83
2022/07/30 02:29:36;;;;;;;6.10;3.10;;;;;;;18.50;77.74;100873.75;107259;1281;70520;-83
2022/07/30 02:32:08;;;;;;;6.10;3.00;;;;;;;18.51;77.68;100879.65;107318;1281;74901;-82
2022/07/30 02:34:37;;;;;;;8.10;3.40;;;;;;;18.52;77.69;100883.05;107435;1282;61665;-82
2022/07/30 02:37:07;;;;;;;7.30;3.20;;;;;;;18.52;78.07;100885.95;107403;1281;60595;-83
2022/07/30 02:39:36;;;;;;;6.60;3.10;;;;;;;18.50;78.39;100888.21;107139;1284;74920;-82
2022/07/30 02:42:05;;;;;;;7.70;3.40;;;;;;;18.47;79.48;100896.96;107301;1282;72531;-82
2022/07/30 02:44:34;;;;;;;7.30;4.40;;;;;;;18.37;80.93;100904.89;107633;1281;73736;-84
2022/07/30 02:47:02;;;;;;;7.40;4.30;;;;;;;18.26;82.03;100900.80;107381;1281;63370;-85
2022/07/30 02:49:34;;;;;;;9.40;4.40;;;;;;;18.18;82.57;100901.34;106979;1284;61104;-84
2022/07/30 02:52:02;;;;;;;9.30;5.00;;;;;;;18.09;83.23;100898.80;107500;1281;75160;-84
2022/07/30 02:54:29;;;;;;;8.00;4.50;;;;;;;18.01;84.30;100900.85;107313;1281;71656;-84
2022/07/30 02:57:00;;;;;;;10.30;4.80;;;;;;;17.91;85.02;100901.46;107069;1282;71134;-84
2022/07/30 02:59:30;;;;;;;7.30;4.70;;;;;;;17.82;85.90;100901.52;107254;1282;62156;-83
2022/07/30 03:01:58;;;;;;;8.90;5.30;;;;;;;17.72;87.31;100905.41;107108;1280;60242;-83
2022/07/30 03:04:26;;;;;;;9.50;5.30;;;;;;;17.63;88.04;100905.81;107201;1282;76262;-85
2022/07/30 03:06:54;;;;;;;9.30;5.40;;;;;;;17.55;88.30;100903.34;107303;1282;72445;-85
2022/07/30 03:09:21;;;;;;;6.90;5.20;;;;;;;17.47;89.40;100900.95;107218;1282;74032;-84
2022/07/30 03:11:50;;;;;;;7.80;5.40;;;;;;;17.38;90.39;100899.48;107559;1281;63091;-83
2022/07/30 03:14:18;;;;;;;8.00;5.50;;;;;;;17.27;91.55;100901.02;107514;1280;60628;-83
2022/07/30 03:16:50;;;;;;;8.30;5.50;;;;;;;17.20;91.82;100903.54;107440;1282;76336;-84
2022/07/30 03:19:21;;;;;;;9.10;6.30;;;;;;;17.11;92.45;100904.27;107633;1281;72761;-84
2022/07/30 03:21:49;;;;;;;8.80;6.20;;;;;;;17.06;92.37;100905.16;107474;1281;73014;-84
2022/07/30 03:24:17;;;;;;;9.00;6.20;;;;;;;17.03;92.56;100908.64;107610;1281;62247;-84
2022/07/30 03:26:45;;;;;;;8.20;6.70;;;;;;;17.01;92.74;100904.60;107339;1281;61611;-84
2022/07/30 03:29:14;;;;;;;8.10;6.40;;;;;;;16.98;93.37;100907.17;107158;1280;74875;-84
2022/07/30 03:31:41;;;;;;;7.90;6.40;;;;;;;16.95;93.96;100907.42;107346;1281;71332;-85
2022/07/30 03:34:12;;;;;;;10.30;7.00;;;;;;;16.93;93.97;100909.90;107381;1281;71336;-84
2022/07/30 03:36:40;;;;;;;9.60;6.70;;;;;;;16.93;93.91;100915.43;107435;1281;61979;-85
2022/07/30 03:39:07;;;;;;;9.10;7.20;;;;;;;16.92;94.25;100921.04;107479;1281;60459;-84
2022/07/30 03:41:38;;;;;;;7.80;6.90;;;;;;;16.92;94.32;100927.14;107506;1281;74888;-85
2022/07/30 03:44:07;;;;;;;9.00;7.70;;;;;;;16.91;94.51;100929.91;107447;1281;71174;-85
2022/07/30 03:46:37;;;;;;;10.50;7.70;;;;;;;16.90;94.82;100932.91;107479;1281;74153;-85
2022/07/30 03:49:04;;;;;;;11.10;7.60;;;;;;;16.88;94.72;100931.77;107254;1282;62079;-85
2022/07/30 03:51:34;;;;;;;10.40;7.10;;;;;;;16.88;94.73;100937.46;107435;1281;60297;-85
2022/07/30 03:54:03;;;;;;;11.30;8.20;;;;;;;16.89;94.92;100944.10;107487;1281;74978;-85
2022/07/30 03:56:30;;;;;;;9.30;7.70;;;;;;;16.89;95.08;100951.14;107306;1281;71366;-85
2022/07/30 03:58:57;;;;;;;10.60;8.20;;;;;;;16.90;95.00;100957.98;107458;1280;74128;-85
2022/07/30 04:01:25;;;;;;;11.80;8.80;;;;;;;16.89;95.05;100954.73;107383;1281;61957;-85
2022/07/30 04:03:52;;;;;;;9.80;7.90;;;;;;;16.88;95.43;100956.35;107454;1281;60655;-85
2022/07/30 04:06:20;;;;;;;11.90;8.50;;;;;;;16.85;96.36;100958.00;107484;1281;74058;-85
2022/07/30 04:08:46;;;;;;;8.70;7.10;;;;;;;16.83;96.47;100962.00;107207;1280;71388;-84
2022/07/30 04:11:13;;;;;;;10.70;8.10;;;;;;;16.81;96.57;100966.55;107573;1281;74653;-86
2022/07/30 04:13:41;;;;;;;11.00;7.90;;;;;;;16.81;96.39;100970.08;107532;1280;62265;-85
2022/07/30 04:16:46;;;;;;;9.70;7.90;;;;;;;16.82;96.66;100978.25;107223;1281;61868;-86
2022/07/30 04:19:20;;;;;;;11.20;7.40;;;;;;;16.81;97.04;100980.02;107653;1280;73774;-85
2022/07/30 04:21:49;;;;;;;9.30;7.90;;;;;;;16.82;96.54;100989.54;107530;1281;71412;-85
2022/07/30 04:24:18;;;;;;;10.20;7.50;;;;;;;16.84;96.64;100992.92;107558;1281;75167;-85
2022/07/30 04:26:47;;;;;;;10.90;7.50;;;;;;;16.85;96.51;101000.39;107274;1281;63317;-85
2022/07/30 04:29:14;;;;;;;10.70;6.90;;;;;;;16.87;96.23;101002.80;107395;1282;61673;-85
2022/07/30 04:31:45;;;;;;;10.10;7.70;;;;;;;16.88;96.41;101007.66;107495;1280;75991;-82
2022/07/30 04:34:16;;;;;;;10.00;7.30;;;;;;;16.89;96.58;101007.95;107577;1281;70910;-82
2022/07/30 04:36:43;;;;;;;11.50;7.80;;;;;;;16.88;96.66;101004.04;107333;1280;72930;-82
2022/07/30 04:39:10;;;;;;;9.90;7.30;;;;;;;16.84;97.66;101004.46;107324;1282;62410;-83
2022/07/30 04:41:37;;;;;;;9.70;7.90;;;;;;;16.80;97.89;101002.88;107415;1281;60329;-85
2022/07/30 04:44:18;;;;;;;10.40;8.00;;;;;;;16.77;98.13;101004.24;107409;1281;74881;-85
2022/07/30 04:46:46;;;;;;;10.10;7.90;;;;;;;16.73;98.43;101001.16;107426;1281;71394;-85
2022/07/30 04:49:16;;;;;;;12.30;7.80;;;;;;;16.72;98.32;101009.19;107271;1281;73380;-84
2022/07/30 04:51:45;;;;;;;9.60;7.30;;;;;;;16.72;98.69;101007.00;107205;1282;63942;-84
2022/07/30 04:54:14;;;;;;;10.10;7.90;;;;;;;16.68;98.92;101011.38;107331;1281;61325;-85
2022/07/30 04:56:45;;;;;;;9.80;7.50;;;;;;;16.67;99.04;101010.83;107558;1281;75979;-84
2022/07/30 04:59:22;;;;;;;9.10;8.10;;;;;;;16.67;99.12;101010.55;107428;1279;72034;-84
2022/07/30 05:01:51;;;;;;;10.10;7.90;;;;;;;16.67;99.02;101014.84;107321;1279;72953;-84
2022/07/30 05:04:18;;;;;;;10.00;8.00;;;;;;;16.67;99.08;101013.34;107504;1281;62863;-85
2022/07/30 05:06:45;;;;;;;9.70;7.70;;;;;;;16.67;99.15;101010.09;107316;1281;61157;-85
2022/07/30 05:09:14;;;;;;;8.70;7.60;;;;;;;16.67;99.33;101011.16;107206;1281;75127;-85
2022/07/30 05:11:48;;;;;;;10.80;7.90;;;;;;;16.67;99.33;101006.59;107379;1281;72359;-85
2022/07/30 05:14:15;;;;;;;9.00;7.70;;;;;;;16.67;99.94;101014.14;107066;1281;73117;-85
2022/07/30 05:16:42;;;;;;;8.70;7.80;;;;;;;16.67;99.48;101014.42;107316;1281;63074;-85
2022/07/30 05:19:10;;;;;;;10.70;7.60;;;;;;;16.70;99.71;101005.85;107400;1279;62926;-85
2022/07/30 05:21:37;;;;;;;11.80;8.00;;;;;;;16.71;99.69;100992.13;107208;1281;74965;-84
2022/07/30 05:24:05;;;;;;;9.00;7.30;;;;;;;16.67;100.00;100976.55;107367;1281;72612;-84
2022/07/30 05:26:32;;;;;;;9.80;7.60;;;;;;;16.61;100.00;100968.48;107451;1281;74645;-84
2022/07/30 05:28:59;;;;;;;10.20;8.10;;;;;;;16.56;100.00;100966.30;107365;1281;61170;-85
2022/07/30 05:31:28;;;;;;;11.90;9.00;;;;;;;16.54;100.00;100967.86;107312;1281;61134;-85
2022/07/30 05:33:58;;;;;;;9.60;7.80;;;;;;;16.51;100.00;100974.39;107193;1282;75164;-84
2022/07/30 05:36:29;;;;;;;10.70;7.20;;;;;;;16.51;100.00;100974.42;107303;1281;72946;-85
2022/07/30 05:38:56;;;;;;;11.30;7.60;;;;;;;16.50;100.00;100971.38;107253;1281;73011;-85
2022/07/30 05:41:23;;;;;;;10.30;7.50;;;;;;;16.51;100.00;100970.35;107495;1281;62210;-85
2022/07/30 05:44:00;;;;;;;11.00;8.20;;;;;;;16.55;100.00;100965.85;107264;1281;61863;-85
2022/07/30 05:46:28;;;;;;;11.80;8.10;;;;;;;16.59;100.00;100967.29;106783;1281;76071;-85
2022/07/30 05:48:55;;;;;;;9.90;7.70;;;;;;;16.64;100.00;100965.42;107179;1282;72247;-85
2022/07/30 05:51:23;;;;;;;10.90;7.90;;;;;;;16.68;100.00;100959.98;107442;1281;74610;-85
2022/07/30 05:53:49;;;;;;;9.40;7.60;;;;;;;16.74;100.00;100959.08;107495;1281;63250;-85
2022/07/30 05:56:16;;;;;;;8.90;6.80;;;;;;;16.76;100.00;100955.43;107376;1282;62985;-85
2022/07/30 05:58:43;;;;;;;10.80;7.60;;;;;;;16.79;100.00;100957.11;107748;1281;76272;-85
2022/07/30 06:01:10;;;;;;;10.10;7.40;;;;;;;16.81;100.00;100961.64;107673;1281;72657;-85
2022/07/30 06:03:37;;;;;;;10.10;7.30;;;;;;;16.85;100.00;100962.38;107539;1281;73517;-85
2022/07/30 06:06:07;;;;;;;8.20;6.90;;;;;;;16.90;100.00;100960.95;107540;1281;63994;-86
2022/07/30 06:08:35;;;;;;;8.10;6.90;;;;;;;16.93;100.00;100964.00;107198;1282;60363;-86
2022/07/30 06:11:02;;;;;;;8.90;7.00;;;;;;;16.94;100.00;100961.40;107348;1281;76206;-85
2022/07/30 06:13:31;;;;;;;8.60;6.80;;;;;;;16.95;100.00;100959.41;107409;1281;72540;-86
2022/07/30 06:15:58;;;;;;;8.70;6.90;;;;;;;16.98;100.00;100959.70;107456;1281;74230;-86
2022/07/30 06:18:24;;;;;;;7.50;6.30;;;;;;;17.00;100.00;100960.48;107234;1284;63139;-86
2022/07/30 06:20:53;;;;;;;8.20;6.60;;;;;;;17.02;100.00;100960.46;107083;1284;61693;-86
2022/07/30 06:23:20;;;;;;;9.00;6.50;;;;;;;17.05;100.00;100959.92;107204;1283;77434;-85
2022/07/30 06:25:48;;;;;;;7.80;6.40;;;;;;;17.11;100.00;100962.17;107377;1280;71348;-85
2022/07/30 06:28:16;;;;;;;8.30;6.20;;;;;;;17.17;100.00;100964.41;107277;1284;73976;-85
2022/07/30 06:31:06;;;;;;;8.80;6.80;;;;;;;17.27;100.00;100965.56;107386;1281;62145;-85
2022/07/30 06:33:33;;;;;;;9.10;7.10;;;;;;;17.39;100.00;100968.52;107141;1281;61404;-85
2022/07/30 06:36:00;;;;;;;8.70;6.30;;;;;;;17.49;100.00;100974.59;107365;1282;76329;-85
2022/07/30 06:38:27;;;;;;;6.60;5.80;;;;;;;17.58;99.90;100980.67;107512;1281;71391;-85
2022/07/30 06:40:53;;;;;;;7.10;5.60;;;;;;;17.66;99.15;100982.35;107285;1281;72503;-85
2022/07/30 06:43:27;;;;;;;8.30;5.90;;;;;;;17.73;98.12;100986.92;107230;1282;60227;-85
2022/07/30 06:45:54;;;;;;;7.70;5.50;;;;;;;17.84;97.86;100994.87;107345;1281;61187;-85
2022/07/30 06:48:21;;;;;;;7.80;5.80;;;;;;;17.96;97.14;100997.80;107370;1280;75111;-85
2022/07/30 06:50:48;;;;;;;7.70;5.20;;;;;;;18.09;96.91;100998.64;107151;1282;72614;-86
2022/07/30 06:53:15;;;;;;;6.40;4.90;;;;;;;18.19;95.73;101000.24;107348;1281;74246;-85
2022/07/30 06:55:41;;;;;;;7.60;5.00;;;;;;;18.31;95.28;101003.96;107372;1281;63189;-85
2022/07/30 06:58:08;;;;;;;8.80;5.10;;;;;;;18.45;95.17;100998.89;107457;1281;62070;-85
2022/07/30 07:00:35;;;;;;;7.70;5.00;;;;;;;18.59;94.45;101001.75;107275;1283;76305;-86
2022/07/30 07:03:02;;;;;;;6.90;4.50;;;;;;;18.72;93.36;101002.71;107522;1281;72495;-85
2022/07/30 07:05:29;;;;;;;7.00;4.70;;;;;;;18.86;92.61;101007.48;107072;1281;74341;-85
2022/07/30 07:07:56;;;;;;;6.80;4.20;;;;;;;19.03;92.70;101002.42;107318;1281;63006;-84
2022/07/30 07:10:26;;;;;;;7.00;4.10;;;;;;;19.14;90.06;100997.91;107432;1281;60031;-84
2022/07/30 07:12:53;;;;;;;5.70;4.20;;;;;;;19.22;89.45;100996.88;107284;1282;75435;-84
2022/07/30 07:15:20;;;;;;;6.00;4.00;;;;;;;19.36;90.26;100992.77;107228;1282;72077;-84
2022/07/30 07:18:02;;;;;;;5.20;3.80;;;;;;;19.56;90.10;100995.17;107366;1281;72881;-84
2022/07/30 07:20:29;;;;;;;5.30;3.70;;;;;;;19.73;88.86;100995.79;107337;1282;61649;-84
2022/07/30 07:22:55;;;;;;;6.40;4.00;;;;;;;19.82;87.28;100995.06;107418;1281;60546;-85
2022/07/30 07:25:23;;;;;;;6.30;3.90;;;;;;;19.90;87.54;100992.61;107408;1281;74956;-84
2022/07/30 07:27:49;;;;;;;5.50;3.50;;;;;;;20.01;85.90;100994.77;107536;1281;71251;-81
2022/07/30 07:30:36;;;;;;;6.70;3.80;;;;;;;20.05;84.94;100991.85;107302;1281;75221;-82
2022/07/30 07:33:03;;;;;;;4.80;3.30;;;;;;;20.12;84.70;100987.27;107307;1281;62035;-82
2022/07/30 07:35:32;;;;;;;5.90;3.30;;;;;;;20.20;84.48;100983.71;107405;1281;60501;-82
2022/07/30 07:38:14;;;;;;;5.80;2.70;;;;;;;20.29;83.13;100982.25;107514;1281;76145;-83
2022/07/30 07:40:41;;;;;;;5.00;2.60;;;;;;;20.32;81.65;100975.16;107335;1281;72548;-83
2022/07/30 07:43:08;;;;;;;6.10;3.30;;;;;;;20.35;82.04;100970.00;107326;1281;73215;-83
2022/07/30 07:45:35;;;;;;;5.00;3.20;;;;;;;20.33;82.42;100966.95;107266;1281;62490;-83
2022/07/30 07:48:02;;;;;;;4.70;3.20;;;;;;;20.28;81.91;100963.21;107327;1281;60895;-82
2022/07/30 07:50:29;;;;;;;6.30;3.80;;;;;;;20.24;82.20;100963.55;107322;1281;73723;-83
2022/07/30 07:52:56;;;;;;;3.50;2.60;;;;;;;20.16;81.70;100959.04;107276;1282;72639;-83
2022/07/30 07:55:23;;;;;;;4.60;2.90;;;;;;;20.02;81.25;100954.27;107369;1282;73895;-83
2022/07/30 07:57:51;;;;;;;5.40;3.20;;;;;;;19.95;82.47;100952.69;107340;1282;62000;-83
2022/07/30 08:00:19;;;;;;;23.20;4.90;;;;;;;19.90;82.98;100952.38;107429;1279;59738;-82
2022/07/30 08:02:47;;;;;;;7.30;3.10;;;;;;;19.91;83.62;100950.20;107389;1281;76680;-83
2022/07/30 08:05:14;;;;;;;101.40;13.10;;;;;;;20.01;84.18;100948.42;107231;1281;72398;-84
2022/07/30 08:07:42;;;;;;;4.70;3.00;;;;;;;20.14;84.33;100950.91;107402;1280;72959;-83
2022/07/30 08:10:10;;;;;;;4.80;2.80;;;;;;;20.31;83.77;100950.30;107324;1281;64483;-83
2022/07/30 08:12:36;;;;;;;3.70;2.40;;;;;;;20.44;81.17;100952.80;107288;1281;60139;-83
2022/07/30 08:15:04;;;;;;;4.50;2.50;;;;;;;20.58;80.69;100950.92;107321;1281;75959;-83
2022/07/30 08:17:31;;;;;;;4.40;2.50;;;;;;;20.70;79.20;100952.29;107289;1281;71578;-84
2022/07/30 08:19:59;;;;;;;8.40;3.10;;;;;;;20.83;79.63;100948.90;107190;1281;74064;-83
2022/07/30 08:22:26;;;;;;;45.00;6.70;;;;;;;21.00;79.80;100944.04;107109;1282;62535;-83
2022/07/30 08:24:53;;;;;;;3.60;2.00;;;;;;;21.19;78.10;100946.39;107273;1281;61361;-83
2022/07/30 08:27:20;;;;;;;11.40;3.20;;;;;;;21.34;77.00;100947.20;107137;1281;74023;-82
2022/07/30 08:29:47;;;;;;;3.00;2.10;;;;;;;21.50;75.77;100946.61;107289;1284;71385;-82
2022/07/30 08:32:14;;;;;;;3.70;2.10;;;;;;;21.73;74.81;100946.75;107178;1281;72789;-82
2022/07/30 08:34:41;;;;;;;3.50;2.00;;;;;;;22.06;74.10;100952.06;107450;1282;64296;-82
2022/07/30 08:37:09;;;;;;;6.50;2.40;;;;;;;22.47;72.18;100950.89;107481;1281;60167;-82
2022/07/30 08:39:39;;;;;;;4.00;1.80;;;;;;;22.84;69.78;100950.86;107409;1281;76015;-83
2022/07/30 08:42:06;;;;;;;4.80;1.90;;;;;;;23.19;68.86;100949.91;107204;1281;71429;-82
2022/07/30 08:44:34;;;;;;;61.60;8.60;;;;;;;23.33;66.58;100949.59;107300;1280;73660;-82
2022/07/30 08:47:02;;;;;;;3.90;1.70;;;;;;;23.42;65.08;100954.23;107420;1280;62654;-84
2022/07/30 08:49:30;;;;;;;2.80;1.60;;;;;;;23.41;64.00;100954.11;107606;1281;60525;-81
2022/07/30 08:51:57;;;;;;;3.80;1.80;;;;;;;23.40;62.74;100960.87;107365;1281;76945;-83
2022/07/30 08:54:25;;;;;;;4.40;1.60;;;;;;;23.48;62.61;100967.77;107391;1281;71785;-82
2022/07/30 08:56:53;;;;;;;4.20;1.70;;;;;;;23.49;61.58;100965.34;107465;1281;74828;-82
2022/07/30 08:59:22;;;;;;;3.30;1.70;;;;;;;23.38;61.13;100967.02;107395;1281;60958;-81
2022/07/30 09:01:50;;;;;;;2.50;1.60;;;;;;;23.31;61.75;100962.45;107459;1280;62329;-82
2022/07/30 09:04:17;;;;;;;3.40;1.60;;;;;;;23.31;60.85;100963.70;107405;1280;76531;-81
2022/07/30 09:06:44;;;;;;;3.80;1.50;;;;;;;23.34;61.01;100964.59;107455;1279;73354;-83
2022/07/30 09:09:12;;;;;;;2.80;1.50;;;;;;;23.35;59.42;100966.77;107553;1280;74251;-82
2022/07/30 09:11:39;;;;;;;2.60;1.50;;;;;;;23.34;59.72;100965.08;107288;1281;61480;-82
2022/07/30 09:14:10;;;;;;;4.00;1.70;;;;;;;23.39;60.77;100965.08;107143;1281;61180;-82
2022/07/30 09:16:38;;;;;;;2.90;1.70;;;;;;;23.55;61.27;100965.41;107290;1282;73915;-82
2022/07/30 09:19:17;;;;;;;2.80;1.70;;;;;;;23.76;60.61;100966.83;107260;1281;73066;-82
2022/07/30 09:22:00;;;;;;;3.50;1.90;;;;;;;24.10;60.26;100968.99;107075;1279;74973;-81
2022/07/30 09:24:27;;;;;;;3.90;1.90;;;;;;;24.39;59.27;100968.77;107483;1281;60540;-82
2022/07/30 09:27:03;;;;;;;2.70;1.70;;;;;;;24.56;58.51;100972.06;107308;1282;60657;-82
2022/07/30 09:29:31;;;;;;;3.60;2.00;;;;;;;24.65;57.37;100974.87;107383;1281;76738;-86
2022/07/30 09:32:06;;;;;;;2.80;1.50;;;;;;;24.72;57.30;100971.88;107293;1279;71591;-80
2022/07/30 09:34:35;;;;;;;3.40;1.40;;;;;;;24.85;56.95;100976.02;107247;1282;72873;-81
2022/07/30 09:37:24;;;;;;;2.20;1.50;;;;;;;25.02;55.63;100975.39;107262;1282;61449;-81
2022/07/30 09:39:54;;;;;;;2.60;1.40;;;;;;;25.23;55.30;100974.68;107049;1281;60631;-80
2022/07/30 09:42:27;;;;;;;3.60;1.70;;;;;;;25.43;54.93;100977.27;107629;1279;76112;-81
2022/07/30 09:45:14;;;;;;;3.10;1.50;;;;;;;25.66;54.92;100973.55;107672;1282;73563;-81
2022/07/30 09:47:43;;;;;;;2.70;1.50;;;;;;;25.76;52.60;100976.45;107691;1279;72969;-82
2022/07/30 09:50:12;;;;;;;3.30;1.60;;;;;;;25.86;53.17;100979.35;107677;1281;61277;-81
2022/07/30 09:53:06;;;;;;;2.70;1.50;;;;;;;25.98;52.21;100977.91;107843;1281;61837;-83
2022/07/30 09:55:35;;;;;;;2.30;1.60;;;;;;;26.01;52.43;100980.90;107742;1281;74988;-81
2022/07/30 09:58:08;;;;;;;4.40;1.70;;;;;;;26.00;52.50;100989.50;107987;1281;71383;-81
2022/07/30 10:00:39;;;;;;;3.60;2.00;;;;;;;26.02;52.60;100985.97;107675;1281;73366;-81
2022/07/30 10:03:18;;;;;;;4.00;1.60;;;;;;;25.93;50.78;100991.39;107736;1280;60411;-81
2022/07/30 10:06:00;;;;;;;2.90;1.30;;;;;;;25.58;50.28;100987.40;107753;1281;59234;-81
2022/07/30 10:08:51;;;;;;;3.90;1.40;;;;;;;25.29;51.19;100991.22;107589;1281;73872;-81
2022/07/30 10:11:21;;;;;;;3.60;1.40;;;;;;;25.20;51.99;100982.60;107285;1281;71415;-81
2022/07/30 10:13:56;;;;;;;2.60;1.40;;;;;;;25.21;52.26;100984.14;107559;1281;71691;-81
2022/07/30 10:16:27;;;;;;;2.20;1.40;;;;;;;25.27;52.30;100985.77;107308;1281;60776;-81
2022/07/30 10:18:56;;;;;;;2.60;1.50;;;;;;;25.18;52.15;100989.70;107253;1284;60973;-81
2022/07/30 10:21:25;;;;;;;3.50;1.70;;;;;;;25.25;53.56;100987.19;106991;1282;75153;-80
2022/07/30 10:23:52;;;;;;;3.20;1.60;;;;;;;25.40;53.18;100989.31;107211;1282;71548;-81
2022/07/30 10:26:19;;;;;;;3.20;1.80;;;;;;;25.45;52.50;100984.39;107309;1281;74269;-81
2022/07/30 10:28:47;;;;;;;3.70;1.70;;;;;;;25.59;52.81;100983.06;107400;1281;60414;-81
2022/07/30 10:31:15;;;;;;;2.60;1.20;;;;;;;25.71;51.34;100981.94;107188;1281;60334;-81
2022/07/30 10:34:01;;;;;;;3.90;1.60;;;;;;;25.77;48.73;100982.38;107080;1281;77364;-81
2022/07/30 10:36:30;;;;;;;3.30;1.30;;;;;;;25.80;48.00;100987.33;107474;1281;71968;-81
2022/07/30 10:38:58;;;;;;;2.00;1.30;;;;;;;25.73;46.87;100989.55;107183;1281;72961;-83
2022/07/30 10:41:40;;;;;;;5.30;1.30;;;;;;;25.69;47.62;100983.07;107279;1281;61726;-81
2022/07/30 10:44:19;;;;;;;3.40;1.30;;;;;;;25.84;48.23;100982.55;107390;1281;63335;-82
2022/07/30 10:47:05;;;;;;;3.40;1.20;;;;;;;26.03;47.62;100984.84;107485;1281;75656;-82
2022/07/30 10:49:35;;;;;;;3.40;1.50;;;;;;;26.17;46.72;100982.55;107351;1281;71721;-81
2022/07/30 10:52:07;;;;;;;4.80;1.60;;;;;;;26.30;47.42;100984.92;107170;1281;74483;-81
2022/07/30 10:54:44;;;;;;;1.90;1.40;;;;;;;26.44;47.53;100985.94;107307;1281;61881;-82
2022/07/30 10:57:16;;;;;;;2.50;1.50;;;;;;;26.50;46.68;100984.20;107307;1281;60702;-82
2022/07/30 10:59:58;;;;;;;2.20;1.10;;;;;;;26.59;45.52;100984.59;107148;1281;75982;-81
2022/07/30 11:02:33;;;;;;;4.50;1.40;;;;;;;26.54;45.15;100985.02;107191;1279;515574;-81
2022/07/30 11:05:21;;;;;;;2.50;1.10;;;;;;;26.48;44.77;100979.63;107218;1282;73838;-81
2022/07/30 11:08:31;;;;;;;2.90;1.40;;;;;;;26.43;45.39;100983.17;107377;1282;61988;-82
2022/07/30 11:11:05;;;;;;;2.20;1.50;;;;;;;26.51;46.02;100977.61;107509;1281;60344;-82
2022/07/30 11:14:03;;;;;;;3.60;1.50;;;;;;;26.61;45.18;100975.45;107289;1281;75241;-81
2022/07/30 11:16:33;;;;;;;3.30;1.60;;;;;;;26.78;46.18;100974.58;107382;1279;71406;-81
2022/07/30 11:19:23;;;;;;;2.40;1.40;;;;;;;26.98;45.59;100973.38;107507;1279;72804;-81
2022/07/30 11:22:43;;;;;;;3.20;1.50;;;;;;;27.08;44.02;100975.83;107387;1281;59558;-82
2022/07/30 11:25:32;;;;;;;2.50;1.40;;;;;;;27.12;44.83;100972.99;107432;1281;60920;-82
2022/07/30 11:28:42;;;;;;;3.20;1.60;;;;;;;27.31;44.88;100972.87;107246;1282;75392;-82
2022/07/30 11:31:30;;;;;;;3.70;1.50;;;;;;;27.49;43.69;100977.52;107578;1281;71619;-81
2022/07/30 11:34:17;;;;;;;2.10;1.40;;;;;;;27.52;42.06;100984.13;107214;1281;74088;-82